Time;durP1;ratioP1;P1;durP2;ratioP2;P2;SDS_P1;SDS_P2;PMS_P1;PMS_P2;Temp;Humidity;BMP_temperature;BMP_pressure;BME280_temperature;BME280_humidity;BME280_pressure;Samples;Min_cycle;Max_cycle;Signal;HPM_P1;HPM_P2
2024/01/13 00:02:24;;;;;;;;;;;;;;;21.04;23.66;96537.50;10506309;28;2560;-68
2024/01/13 00:07:24;;;;;;;;;;;;;;;21.03;23.75;96535.88;10517574;28;2118;-68
2024/01/13 00:12:24;;;;;;;;;;;;;;;21.01;23.77;96533.50;10510515;28;1956;-68
2024/01/13 00:17:25;;;;;;;;;;;;;;;21.01;23.46;96536.13;10506075;28;2023;-68
2024/01/13 00:22:25;;;;;;;;;;;;;;;20.98;23.42;96523.44;10500346;28;1968;-68
2024/01/13 00:27:25;;;;;;;;;;;;;;;20.97;23.40;96532.41;10494883;28;1925;-68
2024/01/13 00:32:26;;;;;;;;;;;;;;;20.95;23.37;96525.81;10508452;28;1953;-68
2024/01/13 00:37:26;;;;;;;;;;;;;;;20.93;23.37;96522.66;10506235;28;2056;-68
2024/01/13 00:42:26;;;;;;;;;;;;;;;20.89;23.45;96511.84;10512720;28;2237;-68
2024/01/13 00:47:26;;;;;;;;;;;;;;;20.90;23.39;96513.41;10512826;28;1915;-68
2024/01/13 00:52:27;;;;;;;;;;;;;;;20.89;23.17;96506.56;10509734;28;2367;-68
2024/01/13 00:57:27;;;;;;;;;;;;;;;20.88;23.33;96498.88;10510720;28;1956;-68
2024/01/13 01:02:27;;;;;;;;;;;;;;;20.87;23.04;96502.59;10511852;28;1905;-68
2024/01/13 01:07:27;;;;;;;;;;;;;;;20.85;23.20;96500.22;10500185;28;1961;-69
2024/01/13 01:12:28;;;;;;;;;;;;;;;20.86;23.03;96501.78;10510630;28;2249;-69
2024/01/13 01:17:28;;;;;;;;;;;;;;;20.85;22.76;96507.31;10505046;28;2080;-68
2024/01/13 01:22:28;;;;;;;;;;;;;;;20.85;22.79;96502.84;10507487;28;2235;-69
2024/01/13 01:27:28;;;;;;;;;;;;;;;20.83;22.97;96510.22;10505515;28;2071;-68
2024/01/13 01:32:29;;;;;;;;;;;;;;;20.86;22.95;96506.25;10486206;28;2303;-68
2024/01/13 01:37:29;;;;;;;;;;;;;;;20.86;22.62;96501.78;10518738;28;1961;-68
2024/01/13 01:42:29;;;;;;;;;;;;;;;20.85;22.77;96500.22;10516114;28;1940;-68
2024/01/13 01:47:29;;;;;;;;;;;;;;;20.85;22.63;96505.50;10508385;28;2200;-68
2024/01/13 01:52:30;;;;;;;;;;;;;;;20.86;22.88;96499.16;10511320;28;2071;-68
2024/01/13 01:57:30;;;;;;;;;;;;;;;20.84;22.79;96489.91;10520734;28;2024;-68
2024/01/13 02:02:31;;;;;;;;;;;;;;;20.85;22.86;96473.88;10511367;28;1986;-68
2024/01/13 02:07:32;;;;;;;;;;;;;;;20.83;22.61;96465.44;10521503;28;2102;-67
2024/01/13 02:12:32;;;;;;;;;;;;;;;20.84;22.80;96472.28;10509446;28;1921;-68
2024/01/13 02:17:32;;;;;;;;;;;;;;;20.85;22.58;96465.16;10506731;28;2011;-68
2024/01/13 02:22:33;;;;;;;;;;;;;;;20.83;22.54;96462.78;10517417;28;2080;-68
2024/01/13 02:27:33;;;;;;;;;;;;;;;20.85;22.37;96463.31;10515802;28;2281;-68
2024/01/13 02:32:33;;;;;;;;;;;;;;;20.83;22.49;96448.81;10519050;28;2007;-69
2024/01/13 02:37:33;;;;;;;;;;;;;;;20.82;22.62;96448.03;10518099;28;2130;-68
2024/01/13 02:42:34;;;;;;;;;;;;;;;20.82;22.61;96448.03;10504847;28;2048;-68
2024/01/13 02:47:44;;;;;;;;;;;;;;;20.82;22.59;96440.13;10495229;28;1992;-68
2024/01/13 02:52:47;;;;;;;;;;;;;;;20.80;22.71;96434.31;10526371;28;1935;-67
2024/01/13 02:57:47;;;;;;;;;;;;;;;20.80;22.50;96423.78;10505486;28;1885;-69
2024/01/13 03:02:47;;;;;;;;;;;;;;;20.80;22.65;96418.50;10516513;28;1981;-68
2024/01/13 03:07:47;;;;;;;;;;;;;;;20.81;22.44;96409.53;10517686;28;2218;-68
2024/01/13 03:12:48;;;;;;;;;;;;;;;20.80;22.49;96409.78;10509451;28;2035;-68
2024/01/13 03:17:48;;;;;;;;;;;;;;;20.78;22.63;96402.16;10517308;28;2100;-68
2024/01/13 03:22:48;;;;;;;;;;;;;;;20.77;22.44;96391.88;10510640;28;1985;-68
2024/01/13 03:27:48;;;;;;;;;;;;;;;20.79;22.38;96389.78;10510581;28;2028;-69
2024/01/13 03:32:49;;;;;;;;;;;;;;;20.77;22.31;96382.13;10514133;28;1917;-68
2024/01/13 03:37:49;;;;;;;;;;;;;;;20.76;22.46;96382.38;10511750;28;1965;-68
2024/01/13 03:42:49;;;;;;;;;;;;;;;20.79;22.38;96381.88;10515335;28;1951;-68
2024/01/13 03:47:50;;;;;;;;;;;;;;;20.78;22.28;96377.66;10514098;28;2039;-69
2024/01/13 03:52:50;;;;;;;;;;;;;;;20.77;22.43;96366.31;10499573;28;2430;-67
2024/01/13 03:57:52;;;;;;;;;;;;;;;20.77;22.35;96363.66;10514375;28;1961;-68
2024/01/13 04:02:53;;;;;;;;;;;;;;;20.77;22.56;96361.03;10516252;28;2170;-68
2024/01/13 04:07:53;;;;;;;;;;;;;;;20.76;22.51;96364.75;10513168;28;2115;-68
2024/01/13 04:12:55;;;;;;;;;;;;;;;20.75;22.30;96359.75;10507710;28;2099;-67
2024/01/13 04:17:55;;;;;;;;;;;;;;;20.76;22.37;96362.09;10509815;28;2031;-68
2024/01/13 04:22:55;;;;;;;;;;;;;;;20.75;22.25;96349.19;10506977;28;2154;-68
2024/01/13 04:27:56;;;;;;;;;;;;;;;20.74;22.26;96347.59;10513814;28;2099;-67
2024/01/13 04:32:57;;;;;;;;;;;;;;;20.73;22.23;96338.91;10519217;28;1896;-67
2024/01/13 04:37:57;;;;;;;;;;;;;;;20.74;22.55;96335.22;10515878;28;2503;-68
2024/01/13 04:42:57;;;;;;;;;;;;;;;20.73;22.54;96333.63;10517104;28;1987;-67
2024/01/13 04:47:58;;;;;;;;;;;;;;;20.73;22.15;96320.47;10510114;28;1909;-68
2024/01/13 04:52:58;;;;;;;;;;;;;;;20.72;22.24;96318.88;10495891;28;1945;-69
2024/01/13 04:57:58;;;;;;;;;;;;;;;20.72;22.31;96316.25;10517761;28;2047;-68
2024/01/13 05:02:58;;;;;;;;;;;;;;;20.70;22.14;96315.72;10506164;28;2079;-68
2024/01/13 05:08:01;;;;;;;;;;;;;;;20.72;22.09;96313.63;10512958;28;2030;-67
2024/01/13 05:13:01;;;;;;;;;;;;;;;20.69;22.17;96314.13;10507366;28;1981;-67
2024/01/13 05:18:02;;;;;;;;;;;;;;;20.70;22.19;96323.63;10517096;28;2338;-67
2024/01/13 05:23:03;;;;;;;;;;;;;;;20.69;22.08;96322.03;10512433;28;2042;-68
2024/01/13 05:28:03;;;;;;;;;;;;;;;20.70;22.03;96323.63;10508557;28;1993;-67
2024/01/13 05:33:04;;;;;;;;;;;;;;;20.68;22.14;96315.19;10508841;28;1938;-67
2024/01/13 05:38:04;;;;;;;;;;;;;;;20.67;21.91;96329.41;10510474;28;2059;-68
2024/01/13 05:43:04;;;;;;;;;;;;;;;20.67;22.22;96326.75;10509452;28;2098;-69
2024/01/13 05:48:05;;;;;;;;;;;;;;;20.66;22.04;96337.56;10511816;28;2087;-68
2024/01/13 05:53:06;;;;;;;;;;;;;;;20.66;22.05;96327.84;10509559;28;2041;-68
2024/01/13 05:58:06;;;;;;;;;;;;;;;20.66;22.08;96333.09;10500042;28;2177;-68
2024/01/13 06:03:06;;;;;;;;;;;;;;;20.63;22.29;96323.06;10508390;28;1981;-69
2024/01/13 06:08:06;;;;;;;;;;;;;;;20.63;22.23;96333.59;10514189;28;1934;-69
2024/01/13 06:13:07;;;;;;;;;;;;;;;20.63;22.01;96327.56;10494448;28;2607;-68
2024/01/13 06:18:08;;;;;;;;;;;;;;;20.61;22.22;96324.41;10505799;28;2111;-68
2024/01/13 06:23:08;;;;;;;;;;;;;;;20.63;21.93;96319.66;10509585;28;1981;-68
2024/01/13 06:28:08;;;;;;;;;;;;;;;20.61;22.14;96317.28;10504408;28;2059;-68
2024/01/13 06:33:08;;;;;;;;;;;;;;;20.62;21.88;96310.97;10511750;28;2096;-68
2024/01/13 06:38:09;;;;;;;;;;;;;;;20.61;22.08;96304.09;10510973;28;2083;-67
2024/01/13 06:43:10;;;;;;;;;;;;;;;20.61;21.99;96308.59;10506747;28;1987;-68
2024/01/13 06:48:11;;;;;;;;;;;;;;;20.59;21.88;96308.84;10509144;28;2064;-68
2024/01/13 06:53:11;;;;;;;;;;;;;;;20.62;21.88;96310.97;10505976;28;1884;-67
2024/01/13 06:58:11;;;;;;;;;;;;;;;20.59;22.10;96315.94;10505941;28;2277;-69
2024/01/13 07:03:11;;;;;;;;;;;;;;;20.57;21.86;96316.22;10511049;28;2283;-69
2024/01/13 07:08:12;;;;;;;;;;;;;;;20.56;21.97;96306.75;10497453;28;2158;-69
2024/01/13 07:13:12;;;;;;;;;;;;;;;20.56;21.84;96308.56;10515100;28;1902;-70
2024/01/13 07:18:12;;;;;;;;;;;;;;;20.56;21.73;96296.22;10511818;28;1933;-70
2024/01/13 07:23:13;;;;;;;;;;;;;;;20.56;21.93;96285.66;10514269;28;1984;-70
2024/01/13 07:28:13;;;;;;;;;;;;;;;20.55;22.09;96260.38;10513565;28;1937;-70
2024/01/13 07:33:13;;;;;;;;;;;;;;;20.55;21.73;96275.38;10510127;28;2267;-69
2024/01/13 07:38:13;;;;;;;;;;;;;;;20.54;21.86;96276.44;10518723;28;2125;-70
2024/01/13 07:43:14;;;;;;;;;;;;;;;20.54;21.71;96282.50;10511345;28;2062;-69
2024/01/13 07:48:14;;;;;;;;;;;;;;;20.51;22.06;96276.94;10498938;28;1887;-68
2024/01/13 07:53:14;;;;;;;;;;;;;;;20.51;22.04;96271.69;10508302;28;1918;-68
2024/01/13 07:58:14;;;;;;;;;;;;;;;20.55;21.59;96262.19;10499581;28;2276;-69
2024/01/13 08:03:15;;;;;;;;;;;;;;;20.51;21.75;96266.41;10516002;28;2052;-71
2024/01/13 08:08:15;;;;;;;;;;;;;;;20.51;21.78;96266.41;10527478;28;2256;-74
2024/01/13 08:13:15;;;;;;;;;;;;;;;20.51;22.76;96267.22;10510253;28;1947;-64
2024/01/13 08:18:16;;;;;;;;;;;;;;;20.55;23.26;96263.00;10508677;28;1977;-67
2024/01/13 08:23:16;;;;;;;;;;;;;;;20.59;23.28;96261.44;10495103;28;2108;-70
2024/01/13 08:28:16;;;;;;;;;;;;;;;20.60;23.27;96276.19;10511387;28;1996;-65
2024/01/13 08:33:16;;;;;;;;;;;;;;;20.61;23.33;96261.19;10511242;28;2237;-70
2024/01/13 08:38:17;;;;;;;;;;;;;;;20.64;23.41;96264.09;10516207;28;2048;-74
2024/01/13 08:43:17;;;;;;;;;;;;;;;20.62;23.35;96249.59;10502728;28;1966;-65
2024/01/13 08:48:17;;;;;;;;;;;;;;;20.60;23.59;96254.31;10495119;28;1944;-73
2024/01/13 08:53:18;;;;;;;;;;;;;;;20.60;23.49;96249.06;10510361;28;2121;-72
2024/01/13 08:58:18;;;;;;;;;;;;;;;20.63;23.58;96240.66;10505340;28;2195;-65
2024/01/13 09:03:20;;;;;;;;;;;;;;;20.64;23.50;96245.66;10510102;28;1972;-64
2024/01/13 09:08:20;;;;;;;;;;;;;;;18.67;21.73;96246.41;10508873;28;1926;-68
2024/01/13 09:13:20;;;;;;;;;;;;;;;17.14;21.67;96260.75;10513140;28;1949;-69
2024/01/13 09:18:21;;;;;;;;;;;;;;;18.20;26.50;96250.63;10507177;28;2001;-65
2024/01/13 09:23:21;;;;;;;;;;;;;;;18.85;25.92;96242.63;10522196;27;2410;-65
2024/01/13 09:28:21;;;;;;;;;;;;;;;19.07;24.93;96229.38;10505365;28;1924;-66
2024/01/13 09:33:24;;;;;;;;;;;;;;;19.14;24.74;96224.72;10511679;28;2033;-65
2024/01/13 09:38:24;;;;;;;;;;;;;;;19.29;24.37;96222.16;10503475;28;2056;-67
2024/01/13 09:43:26;;;;;;;;;;;;;;;19.45;23.99;96227.28;10492612;28;2045;-66
2024/01/13 09:48:27;;;;;;;;;;;;;;;19.53;24.00;96202.38;10505884;28;1969;-66
2024/01/13 09:53:28;;;;;;;;;;;;;;;19.61;24.13;96224.75;10488330;28;2186;-67
2024/01/13 09:58:29;;;;;;;;;;;;;;;19.72;23.67;96205.34;10496173;28;1883;-67
2024/01/13 10:03:29;;;;;;;;;;;;;;;19.82;23.49;96215.91;10513568;28;1964;-67
2024/01/13 10:08:30;;;;;;;;;;;;;;;19.84;23.70;96219.88;10513861;28;1885;-66
2024/01/13 10:13:30;;;;;;;;;;;;;;;20.23;24.64;96201.84;10514868;28;2190;-67
2024/01/13 10:18:30;;;;;;;;;;;;;;;20.20;25.42;96215.53;10507240;28;1938;-67
2024/01/13 10:23:31;;;;;;;;;;;;;;;20.31;25.75;96203.97;10510315;28;2039;-68
2024/01/13 10:28:31;;;;;;;;;;;;;;;20.34;25.66;96177.13;10509711;28;2118;-68
2024/01/13 10:33:31;;;;;;;;;;;;;;;20.31;25.95;96161.06;10510394;28;1973;-65
2024/01/13 10:38:32;;;;;;;;;;;;;;;20.27;25.54;96147.63;10524705;28;1921;-65
2024/01/13 10:43:34;;;;;;;;;;;;;;;20.28;25.48;96138.66;10520846;28;2080;-65
2024/01/13 10:48:41;;;;;;;;;;;;;;;20.21;25.85;96125.00;10499493;28;1883;-67
2024/01/13 10:53:42;;;;;;;;;;;;;;;20.27;26.21;96127.38;10516955;28;1888;-75
2024/01/13 10:58:46;;;;;;;;;;;;;;;20.25;25.89;96132.13;10514436;28;1930;-74
2024/01/13 11:03:47;;;;;;;;;;;;;;;20.32;25.33;96129.19;10515280;28;2126;-67
2024/01/13 11:08:47;;;;;;;;;;;;;;;20.30;25.74;96120.78;10524861;28;2212;-69
2024/01/13 11:13:53;;;;;;;;;;;;;;;20.40;25.72;96127.91;10501360;28;2058;-71
2024/01/13 11:18:53;;;;;;;;;;;;;;;20.29;26.35;96132.38;10481747;28;1961;-69
2024/01/13 11:23:54;;;;;;;;;;;;;;;20.27;26.19;96118.69;10509254;28;2118;-68
2024/01/13 11:28:55;;;;;;;;;;;;;;;20.19;26.23;96098.13;10509763;28;1990;-69
2024/01/13 11:33:56;;;;;;;;;;;;;;;20.24;25.75;96082.34;10519092;28;1932;-69
2024/01/13 11:38:57;;;;;;;;;;;;;;;20.13;25.75;96070.22;10516530;28;1946;-69
2024/01/13 11:43:57;;;;;;;;;;;;;;;20.02;25.80;96072.03;10519178;28;1991;-68
2024/01/13 11:49:03;;;;;;;;;;;;;;;20.05;25.72;96079.41;10516016;28;2067;-67
2024/01/13 11:54:03;;;;;;;;;;;;;;;19.99;26.23;96101.50;10514375;28;1939;-69
2024/01/13 11:59:04;;;;;;;;;;;;;;;19.93;25.97;96097.28;10514636;28;2040;-69
2024/01/13 12:04:04;;;;;;;;;;;;;;;19.88;25.87;96084.13;10496146;28;2308;-68
2024/01/13 12:09:04;;;;;;;;;;;;;;;19.89;25.64;96056.75;10511561;28;1929;-69
2024/01/13 12:14:05;;;;;;;;;;;;;;;19.87;26.16;96042.28;10516253;28;1931;-68
2024/01/13 12:19:05;;;;;;;;;;;;;;;19.92;25.42;96027.31;10510399;28;2021;-68
2024/01/13 12:24:05;;;;;;;;;;;;;;;19.88;25.99;96044.66;10496643;28;1977;-68
2024/01/13 12:29:05;;;;;;;;;;;;;;;19.88;26.23;96030.72;10513166;28;2064;-69
2024/01/13 12:34:12;;;;;;;;;;;;;;;19.90;25.62;96033.88;10513975;28;1866;-68
2024/01/13 12:39:15;;;;;;;;;;;;;;;19.78;26.02;96026.25;10514130;28;2095;-69
2024/01/13 12:44:15;;;;;;;;;;;;;;;19.83;25.45;96013.09;10509276;28;1990;-69
2024/01/13 12:49:16;;;;;;;;;;;;;;;19.74;25.88;96013.88;10508811;28;2119;-67
2024/01/13 12:54:16;;;;;;;;;;;;;;;19.81;25.78;95995.97;10516926;28;2060;-68
2024/01/13 12:59:18;;;;;;;;;;;;;;;19.78;26.12;95968.38;10495795;28;2117;-69
2024/01/13 13:04:18;;;;;;;;;;;;;;;19.83;25.54;95955.22;10509810;28;2072;-69
2024/01/13 13:09:19;;;;;;;;;;;;;;;19.82;25.59;95942.34;10510419;28;2113;-70
2024/01/13 13:14:20;;;;;;;;;;;;;;;19.82;25.62;95937.88;10512127;28;1888;-69
2024/01/13 13:19:20;;;;;;;;;;;;;;;19.76;26.02;95924.97;10507632;28;2060;-70
2024/01/13 13:24:21;;;;;;;;;;;;;;;19.73;25.74;95926.28;10505817;28;2039;-69
2024/01/13 13:29:21;;;;;;;;;;;;;;;19.77;25.96;95944.94;10508753;28;1978;-68
2024/01/13 13:34:24;;;;;;;;;;;;;;;19.74;26.19;95977.81;10490342;28;1964;-69
2024/01/13 13:39:25;;;;;;;;;;;;;;;19.69;26.05;95937.59;10506237;28;2195;-68
2024/01/13 13:44:25;;;;;;;;;;;;;;;19.73;26.10;95928.13;10506434;28;1964;-68
2024/01/13 13:49:26;;;;;;;;;;;;;;;19.70;26.19;95926.03;10505435;28;2231;-69
2024/01/13 13:54:26;;;;;;;;;;;;;;;19.67;25.97;95935.22;10508575;28;1928;-68
2024/01/13 13:59:26;;;;;;;;;;;;;;;19.67;25.90;95921.28;10509037;28;1905;-68
2024/01/13 14:04:27;;;;;;;;;;;;;;;19.69;25.98;95934.97;10510541;28;2024;-70
2024/01/13 14:09:27;;;;;;;;;;;;;;;19.66;25.91;95899.44;10507344;28;1953;-70
2024/01/13 14:14:27;;;;;;;;;;;;;;;19.68;25.61;95896.56;10509844;28;2060;-69
2024/01/13 14:19:27;;;;;;;;;;;;;;;19.66;25.68;95880.28;10517700;28;1968;-69
2024/01/13 14:24:28;;;;;;;;;;;;;;;19.67;25.55;95877.38;10521871;28;1979;-68
2024/01/13 14:29:28;;;;;;;;;;;;;;;19.64;25.60;95867.38;10505419;28;1938;-70
2024/01/13 14:34:29;;;;;;;;;;;;;;;19.63;25.63;95852.66;10519413;28;2401;-69
2024/01/13 14:39:29;;;;;;;;;;;;;;;19.62;25.54;95834.53;10519454;28;2125;-70
2024/01/13 14:44:29;;;;;;;;;;;;;;;19.63;25.52;95812.41;10513251;28;2258;-69
2024/01/13 14:49:30;;;;;;;;;;;;;;;19.65;25.29;95805.06;10517187;28;2027;-69
2024/01/13 14:54:30;;;;;;;;;;;;;;;19.66;25.41;95853.97;10509157;28;2099;-69
2024/01/13 14:59:30;;;;;;;;;;;;;;;19.63;25.45;95854.50;10512502;28;1975;-70
2024/01/13 15:04:31;;;;;;;;;;;;;;;19.65;25.06;95865.53;10515075;28;2175;-70
2024/01/13 15:09:32;;;;;;;;;;;;;;;19.62;25.31;95845.81;10507219;28;1966;-70
2024/01/13 15:14:32;;;;;;;;;;;;;;;19.62;25.15;95845.03;10508806;28;2114;-70
2024/01/13 15:19:32;;;;;;;;;;;;;;;19.63;25.06;95868.44;10515585;28;3177;-70
2024/01/13 15:24:32;;;;;;;;;;;;;;;19.64;25.05;95856.84;10495436;28;2082;-71
2024/01/13 15:29:33;;;;;;;;;;;;;;;19.64;25.13;95853.44;10514668;28;2137;-70
2024/01/13 15:34:33;;;;;;;;;;;;;;;19.61;24.92;95836.34;10515490;28;1976;-70
2024/01/13 15:39:33;;;;;;;;;;;;;;;19.62;24.73;95816.13;10514259;28;1968;-69
2024/01/13 15:44:33;;;;;;;;;;;;;;;19.60;24.95;95810.34;10509511;28;2023;-70
2024/01/13 15:49:34;;;;;;;;;;;;;;;19.61;25.20;95828.47;10517631;28;1911;-71
2024/01/13 15:54:34;;;;;;;;;;;;;;;19.61;24.96;95820.59;10515815;28;1937;-70
2024/01/13 15:59:34;;;;;;;;;;;;;;;19.60;24.60;95819.00;10515190;28;1985;-69
2024/01/13 16:04:34;;;;;;;;;;;;;;;19.60;24.72;95819.00;10514228;28;2291;-70
2024/01/13 16:09:35;;;;;;;;;;;;;;;19.62;25.06;95819.50;10495523;28;2082;-69
2024/01/13 16:14:36;;;;;;;;;;;;;;;19.60;24.63;95831.38;10511421;28;1985;-69
2024/01/13 16:19:36;;;;;;;;;;;;;;;19.64;24.65;95833.19;10514748;28;1925;-68
2024/01/13 16:24:36;;;;;;;;;;;;;;;19.69;25.12;95827.94;10523817;28;1998;-70
2024/01/13 16:29:36;;;;;;;;;;;;;;;19.90;26.27;95823.41;10511861;28;1913;-71
2024/01/13 16:34:37;;;;;;;;;;;;;;;19.95;27.13;95811.03;10511552;28;2052;-68
2024/01/13 16:39:37;;;;;;;;;;;;;;;20.01;26.72;95801.28;10516243;28;1885;-67
2024/01/13 16:44:37;;;;;;;;;;;;;;;20.10;27.47;95797.03;10511592;28;1961;-68
2024/01/13 16:49:38;;;;;;;;;;;;;;;20.20;27.33;95791.75;10524747;28;2436;-68
2024/01/13 16:54:41;;;;;;;;;;;;;;;20.21;26.97;95775.72;10520643;28;1608;-68
2024/01/13 16:59:41;;;;;;;;;;;;;;;20.15;27.56;95778.59;10508320;28;1953;-65
2024/01/13 17:04:41;;;;;;;;;;;;;;;20.17;28.55;95765.97;10511335;28;1965;-66
2024/01/13 17:09:42;;;;;;;;;;;;;;;20.13;28.41;95757.03;10511527;28;2099;-67
2024/01/13 17:14:42;;;;;;;;;;;;;;;20.23;28.14;95759.66;10515217;28;2133;-67
2024/01/13 17:19:43;;;;;;;;;;;;;;;20.35;27.37;95768.00;10508072;28;1912;-68
2024/01/13 17:24:43;;;;;;;;;;;;;;;20.19;27.83;95775.19;10510925;28;2060;-68
2024/01/13 17:29:44;;;;;;;;;;;;;;;20.16;28.22;95753.84;10511565;28;2294;-66
2024/01/13 17:34:44;;;;;;;;;;;;;;;20.22;27.82;95750.97;10520360;28;1707;-68
2024/01/13 17:39:44;;;;;;;;;;;;;;;20.25;27.77;95741.75;10525073;28;1702;-67
2024/01/13 17:44:44;;;;;;;;;;;;;;;20.28;28.17;95741.97;10518052;28;1976;-67
2024/01/13 17:49:45;;;;;;;;;;;;;;;20.26;28.02;95732.78;10521994;28;1582;-67
2024/01/13 17:54:45;;;;;;;;;;;;;;;20.31;28.21;95735.38;10522001;28;1491;-67
2024/01/13 17:59:46;;;;;;;;;;;;;;;20.36;28.47;95743.25;10516446;28;1694;-69
2024/01/13 18:04:46;;;;;;;;;;;;;;;20.21;28.93;95757.28;10516532;28;1973;-63
2024/01/13 18:09:46;;;;;;;;;;;;;;;20.35;28.13;95761.94;10520525;28;1487;-63
2024/01/13 18:14:47;;;;;;;;;;;;;;;20.46;27.55;95753.75;10514119;28;1487;-62
2024/01/13 18:19:47;;;;;;;;;;;;;;;20.28;28.40;95746.44;10511819;28;1491;-64
2024/01/13 18:24:47;;;;;;;;;;;;;;;20.25;28.32;95739.91;10512999;28;1925;-64
2024/01/13 18:29:48;;;;;;;;;;;;;;;20.24;28.77;95746.22;10513360;28;2816;-64
2024/01/13 18:34:49;;;;;;;;;;;;;;;20.18;28.37;95741.19;10508595;28;1905;-66
2024/01/13 18:39:49;;;;;;;;;;;;;;;20.20;28.15;95737.28;10504680;28;4133;-66
2024/01/13 18:44:49;;;;;;;;;;;;;;;20.17;28.66;95752.81;10508054;28;2122;-67
2024/01/13 18:49:50;;;;;;;;;;;;;;;20.13;28.59;95749.13;10506892;28;1988;-67
2024/01/13 18:54:50;;;;;;;;;;;;;;;20.11;28.46;95762.53;10504071;28;2036;-66
2024/01/13 18:59:50;;;;;;;;;;;;;;;20.16;28.31;95759.13;10505755;28;1895;-66
2024/01/13 19:04:51;;;;;;;;;;;;;;;20.11;30.02;95767.81;10515497;28;2068;-66
2024/01/13 19:09:51;;;;;;;;;;;;;;;20.37;31.70;95759.84;10496201;28;2264;-67
2024/01/13 19:14:51;;;;;;;;;;;;;;;20.40;31.83;95748.78;10516643;28;2064;-69
2024/01/13 19:19:51;;;;;;;;;;;;;;;20.34;32.82;95750.63;10515323;28;2143;-67
2024/01/13 19:24:52;;;;;;;;;;;;;;;20.34;31.94;95753.25;10514105;28;2103;-67
2024/01/13 19:29:52;;;;;;;;;;;;;;;20.19;33.14;95748.88;10516947;28;2254;-67
2024/01/13 19:34:52;;;;;;;;;;;;;;;20.17;33.43;95755.44;10517733;28;2200;-67
2024/01/13 19:39:53;;;;;;;;;;;;;;;20.07;34.66;95756.25;10514778;28;2050;-67
2024/01/13 19:44:53;;;;;;;;;;;;;;;20.03;34.41;95749.19;10502756;28;2067;-66
2024/01/13 19:49:53;;;;;;;;;;;;;;;19.93;34.31;95751.84;10476810;28;2512;-67
2024/01/13 19:54:54;;;;;;;;;;;;;;;19.88;33.99;95751.88;10515020;28;1953;-67
2024/01/13 19:59:54;;;;;;;;;;;;;;;19.84;35.35;95750.84;10514835;28;1960;-66
2024/01/13 20:04:56;;;;;;;;;;;;;;;19.78;34.88;95755.34;10510961;28;2035;-66
2024/01/13 20:09:56;;;;;;;;;;;;;;;19.72;35.65;95759.00;10498268;28;1952;-66
2024/01/13 20:14:56;;;;;;;;;;;;;;;19.67;36.26;95750.34;10511278;28;2203;-67
2024/01/13 20:19:56;;;;;;;;;;;;;;;19.61;36.70;95762.72;10518063;28;2138;-67
2024/01/13 20:24:59;;;;;;;;;;;;;;;19.59;37.05;95772.72;10515325;28;1902;-67
2024/01/13 20:30:03;;;;;;;;;;;;;;;19.59;36.78;95770.09;10511027;28;2120;-69
2024/01/13 20:35:03;;;;;;;;;;;;;;;19.56;36.75;95761.97;10513405;28;2140;-68
2024/01/13 20:40:04;;;;;;;;;;;;;;;19.51;38.53;95756.69;10517398;28;1814;-68
2024/01/13 20:45:05;;;;;;;;;;;;;;;19.44;38.90;95756.97;10516503;28;2455;-67
2024/01/13 20:50:05;;;;;;;;;;;;;;;19.44;38.05;95749.88;10522148;28;1813;-68
2024/01/13 20:55:06;;;;;;;;;;;;;;;19.43;38.95;95756.19;10517971;28;1841;-66
2024/01/13 21:00:09;;;;;;;;;;;;;;;19.41;39.40;95763.53;10520711;28;1428;-67
2024/01/13 21:05:10;;;;;;;;;;;;;;;19.39;39.57;95752.50;10524296;28;1889;-67
2024/01/13 21:10:11;;;;;;;;;;;;;;;19.37;39.64;95746.72;10517903;28;1724;-67
2024/01/13 21:15:12;;;;;;;;;;;;;;;19.34;40.00;95736.75;10516684;28;1488;-68
2024/01/13 21:20:13;;;;;;;;;;;;;;;19.34;39.96;95742.03;10504916;28;1470;-68
2024/01/13 21:25:16;;;;;;;;;;;;;;;19.32;39.06;95738.84;10514172;28;2634;-66
2024/01/13 21:30:18;;;;;;;;;;;;;;;19.29;39.43;95738.56;10500605;28;1756;-66
2024/01/13 21:35:19;;;;;;;;;;;;;;;19.28;38.89;95737.78;10515800;28;1570;-67
2024/01/13 21:40:19;;;;;;;;;;;;;;;19.30;38.96;95725.19;10501302;28;1976;-68
2024/01/13 21:45:21;;;;;;;;;;;;;;;19.29;38.66;95728.84;10511677;28;1749;-68
2024/01/13 21:50:23;;;;;;;;;;;;;;;19.28;39.39;95724.66;10516595;28;1449;-67
2024/01/13 21:55:23;;;;;;;;;;;;;;;19.29;38.23;95726.22;10501437;28;1504;-67
2024/01/13 22:00:23;;;;;;;;;;;;;;;19.27;37.87;95717.81;10504966;28;1906;-67
2024/01/13 22:05:24;;;;;;;;;;;;;;;19.27;38.16;95715.19;10517907;28;1511;-67
2024/01/13 22:10:24;;;;;;;;;;;;;;;19.31;37.75;95697.81;10515465;28;1607;-66
2024/01/13 22:15:24;;;;;;;;;;;;;;;19.30;36.96;95693.63;10527512;28;2493;-66
2024/01/13 22:20:25;;;;;;;;;;;;;;;19.33;36.19;95669.47;10519929;28;1968;-68
2024/01/13 22:25:25;;;;;;;;;;;;;;;19.35;35.89;95667.34;10487549;28;2902;-68
2024/01/13 22:30:25;;;;;;;;;;;;;;;19.44;34.24;95663.13;10501037;28;3077;-67
2024/01/13 22:35:25;;;;;;;;;;;;;;;19.37;34.97;95665.25;10495733;28;3036;-67
2024/01/13 22:40:27;;;;;;;;;;;;;;;19.36;34.65;95662.91;10503542;28;3130;-67
2024/01/13 22:45:27;;;;;;;;;;;;;;;19.25;35.25;95654.22;10512856;28;3004;-67
2024/01/13 22:50:28;;;;;;;;;;;;;;;19.32;34.26;95636.34;10506846;28;2924;-68
2024/01/13 22:55:28;;;;;;;;;;;;;;;19.27;34.58;95607.44;10512148;28;3037;-67
2024/01/13 23:00:31;;;;;;;;;;;;;;;19.20;35.01;95604.31;10506202;28;2983;-67
2024/01/13 23:05:33;;;;;;;;;;;;;;;19.18;34.74;95619.56;10504401;28;2970;-67
2024/01/13 23:10:35;;;;;;;;;;;;;;;19.16;34.94;95619.03;10487243;28;2925;-67
2024/01/13 23:15:35;;;;;;;;;;;;;;;19.13;34.61;95611.69;10500502;28;2948;-67
2024/01/13 23:20:36;;;;;;;;;;;;;;;19.14;34.02;95610.66;10503188;28;3083;-66
2024/01/13 23:25:36;;;;;;;;;;;;;;;19.27;32.89;95604.00;10504555;28;3120;-65
2024/01/13 23:30:36;;;;;;;;;;;;;;;19.17;33.63;95586.44;10506587;28;2852;-68
2024/01/13 23:35:36;;;;;;;;;;;;;;;19.12;32.65;95560.22;10511350;28;2931;-66
2024/01/13 23:40:37;;;;;;;;;;;;;;;19.12;32.84;95547.06;10500190;28;2996;-67
2024/01/13 23:45:37;;;;;;;;;;;;;;;19.08;33.12;95532.09;10504704;28;2964;-67
2024/01/13 23:50:37;;;;;;;;;;;;;;;19.09;32.74;95549.44;10503807;28;2968;-68
2024/01/13 23:55:38;;;;;;;;;;;;;;;19.06;32.48;95529.72;10506403;28;3012;-67
